createdAt,value
2022-10-06T00:55:38.911Z,100
2022-10-06T01:25:41.435Z,100
2022-10-06T01:35:41.633Z,100
2022-10-06T01:55:42.180Z,100
2022-10-06T02:05:42.576Z,100
2022-10-06T02:35:44.966Z,100
2022-10-06T02:55:46.701Z,99
2022-10-06T03:05:47.594Z,99
2022-10-06T03:25:49.094Z,98
2022-10-06T03:35:49.796Z,98
2022-10-06T03:45:50.456Z,99
2022-10-06T03:55:51.315Z,99
2022-10-06T04:05:51.948Z,99
2022-10-06T04:25:55.797Z,99
2022-10-06T04:55:54.111Z,98
2022-10-06T05:15:56.145Z,98
2022-10-06T05:35:57.349Z,98
2022-10-06T05:55:58.365Z,99
2022-10-06T06:05:58.614Z,99
2022-10-06T06:15:59.679Z,99
2022-10-06T06:26:02.387Z,99
2022-10-06T06:36:00.732Z,99
2022-10-06T06:46:01.371Z,99
2022-10-06T06:56:01.746Z,98
2022-10-06T07:06:02.598Z,97
2022-10-06T07:16:03.374Z,97
2022-10-06T07:26:03.769Z,96
2022-10-06T07:36:04.785Z,95
2022-10-06T07:46:05.703Z,94
2022-10-06T07:56:06.129Z,93
2022-10-06T08:06:06.820Z,92
2022-10-06T08:26:07.853Z,90
2022-10-06T08:36:08.476Z,87
2022-10-06T08:46:09.216Z,84
2022-10-06T08:56:09.659Z,82
2022-10-06T09:06:09.988Z,80
2022-10-06T09:16:10.661Z,79
2022-10-06T09:56:12.189Z,72
2022-10-06T10:06:13.180Z,72
2022-10-06T10:16:14.146Z,71
2022-10-06T10:26:14.438Z,70
2022-10-06T10:46:15.218Z,69
2022-10-06T10:56:15.787Z,67
2022-10-06T11:06:16.106Z,68
2022-10-06T11:16:17.216Z,67
2022-10-06T11:26:17.897Z,68
2022-10-06T11:36:18.820Z,68
2022-10-06T11:46:19.045Z,68
2022-10-06T11:56:19.379Z,65
2022-10-06T12:06:19.656Z,64
2022-10-06T12:26:20.398Z,62
2022-10-06T12:46:20.668Z,62
2022-10-06T12:56:21.141Z,61
2022-10-06T13:16:22.783Z,60
2022-10-06T13:26:22.862Z,61
2022-10-06T13:46:24.089Z,59
2022-10-06T14:06:24.649Z,60
2022-10-06T14:16:25.259Z,59
2022-10-06T14:26:25.975Z,57
2022-10-06T14:46:27.403Z,60
2022-10-06T15:06:28.473Z,61
2022-10-06T15:16:29.028Z,61
2022-10-06T15:36:30.473Z,60
2022-10-06T15:46:31.504Z,61
2022-10-06T15:56:32.107Z,62
2022-10-06T16:46:34.366Z,66
2022-10-06T16:56:35.012Z,68
2022-10-06T17:06:35.800Z,70
2022-10-06T17:26:36.832Z,73
2022-10-06T17:36:37.321Z,76
2022-10-06T17:46:38.450Z,78
2022-10-06T17:56:39.388Z,79
2022-10-06T18:06:40.388Z,81
2022-10-06T18:16:40.919Z,82
2022-10-06T18:26:41.216Z,84
2022-10-06T18:36:41.619Z,85
2022-10-06T18:46:42.411Z,86
2022-10-06T18:56:43.474Z,88
2022-10-06T19:06:44.128Z,89
2022-10-06T19:16:45.153Z,90
2022-10-06T19:26:46.039Z,91
2022-10-06T19:36:45.859Z,92
2022-10-06T19:46:46.439Z,93
2022-10-06T19:56:46.720Z,94
2022-10-06T20:06:47.811Z,94
2022-10-06T20:16:48.488Z,95
2022-10-06T20:26:49.389Z,96
2022-10-06T20:36:54.716Z,97
2022-10-06T20:46:49.859Z,99
2022-10-06T21:06:51.555Z,98
2022-10-06T21:16:52.190Z,99
2022-10-06T21:26:53.235Z,100
2022-10-06T21:36:53.670Z,100
2022-10-06T21:46:54.303Z,100
2022-10-06T21:56:54.710Z,100
2022-10-06T22:06:55.812Z,100
2022-10-06T22:16:55.890Z,100
2022-10-06T22:26:55.992Z,100
2022-10-06T22:36:56.989Z,100
2022-10-06T22:46:57.599Z,100
2022-10-06T22:56:57.965Z,100
2022-10-06T23:26:59.198Z,100
2022-10-06T23:36:59.770Z,100
2022-10-06T23:47:00.727Z,100
2022-10-06T23:57:01.595Z,100
